aviador You're here:

KNFG Decoded Metar

CAMP PENDLETON in CA, USA
Report Time2018-07-21 17:55:00
UTC Time2018-07-21 18:55:14
Flight Rules vfr VFR
Wind210° at 07 kt
W.Decomp.*RWY 21: 6.8 kt HW 1.6 kt LCW
W.Rank210° ranks 1
Current wind is above 210° avg. (6.5)
Visibility9999 m
Phenomena:N/A
Clouds:N/A
Expected CloudBase > 2,400 ft AGL from Temp-Dew spread
CeilingNone
Temp25°C (ISA +10)
Dew Point19°C (69% RH)
QNH1016 hPa
Density Alt1,444 ft
Elevation79 ft
Report Wrong Elevation
Raw Report
KNFG 211755Z AUTO 21007KT 10SM CLR 25/19 A2999 RMK AO2 SLP155
T02500189 10250 20194 53001=

Extra information for KNFG:More info

Metar Taf Metar & Taf Last 4 Metars F.Rules Stats Wind Profile Meteogram Temp Stats Airport Information Weather charts Add Link Nearby VenuesMetar ALERT Operation Metar Decoded Social comments

AIRNAV info for KNFG